Cassopolis, Michigan
Current Conditions -  °F | °C
As of 9:50 AM on Friday 31 Oct 2014 (Local Time) from KEKM Reporting Station
Light Rain Light Rain  
Wind Chill: 33°   Ceiling: 1200
Heat Index: 39°   Visibility: 7mi
Dew Point: 36°   Wind: 9mph
Humidity: 87%   Direction: 300°WNW
Pressure: 29.98"   Gusts: 17mph
Location:  41.91°N, 86.01°W
Report Text: KEKM 311350Z 30008G15KT 7SM -RA BKN012 OVC017 04/02 A2998 RMK A02
Loading
Personal Weather Stations






























Interactive Weather Map
Tropical Storm Tracking
New forecast layout! Learn more

10-Day Weather Forecast

Advertisements
Track Severe Weather on mobile